This is the latest recevied weather packets stored in our database for station/object EA1GEC-10. If no packets are shown the sender has not sent any weather packets the latest 10 day(s).
| Time | Temp. | Humidity | Pressure | Rain* | Wind** | Luminosity | Snow |
|---|---|---|---|---|---|---|---|
| 1778092268 | 13.33° C | 62% | 1019.7 hPa | - | - | - | - |
| 1778091367 | 13.33° C | 61% | 1019.7 hPa | - | - | - | - |
| 1778090467 | 14.44° C | 61% | 1019.6 hPa | - | - | - | - |
| 1778089567 | 14.44° C | 60% | 1019.5 hPa | - | - | - | - |
| 1778088667 | 14.44° C | 60% | 1019.5 hPa | - | - | - | - |
| 1778087776 | 14.44° C | 60% | 1019.7 hPa | - | - | - | - |
| 1778087078 | 14.44° C | 60% | 1019.6 hPa | - | - | - | - |
| 1778086178 | 15° C | 59% | 1019.5 hPa | - | - | - | - |
| 1778085278 | 15° C | 60% | 1019.6 hPa | - | - | - | - |
| 1778084378 | 15° C | 61% | 1019.6 hPa | - | - | - | - |
| 1778083478 | 14.44° C | 60% | 1019.5 hPa | - | - | - | - |
| 1778082578 | 15° C | 58% | 1019.6 hPa | - | - | - | - |
| 1778081678 | 15.56° C | 56% | 1019.7 hPa | - | - | - | - |
| 1778080777 | 15.56° C | 55% | 1019.9 hPa | - | - | - | - |
| 1778079877 | 16.11° C | 53% | 1020 hPa | - | - | - | - |
| 1778078987 | 16.11° C | 53% | 1020.2 hPa | - | - | - | - |
| 1778078087 | 16.11° C | 51% | 1020.5 hPa | - | - | - | - |
| 1778077177 | 16.67° C | 50% | 1020.6 hPa | - | - | - | - |
| 1778076277 | 16.67° C | 50% | 1020.7 hPa | - | - | - | - |
| 1778075377 | 17.78° C | 48% | 1020.8 hPa | - | - | - | - |
| 1778074477 | 16.67° C | 46% | 1020.9 hPa | - | - | - | - |
| 1778073577 | 20° C | 39% | 1020.9 hPa | - | - | - | - |
| 1778072677 | 23.33° C | 41% | 1021.1 hPa | - | - | - | - |
| 1778071777 | 28.89° C | 42% | 1021.4 hPa | - | - | - | - |
| 1778070876 | 20.56° C | 51% | 1021.5 hPa | - | - | - | - |
* Rain since midnight (hover to see other rain measurements)
** Current wind speed in m/s (hover to see current wind gust speed)